sensor_id;sensor_type;location;lat;lon;timestamp;P1;durP1;ratioP1;P2;durP2;ratioP2
19235;SDS011;9752;54.270;12.470;2024-02-21T00:01:52;51.10;;;25.37;;
19235;SDS011;9752;54.270;12.470;2024-02-21T00:06:54;48.53;;;23.93;;
19235;SDS011;9752;54.270;12.470;2024-02-21T00:11:57;56.30;;;24.77;;
19235;SDS011;9752;54.270;12.470;2024-02-21T00:16:59;55.50;;;24.50;;
19235;SDS011;9752;54.270;12.470;2024-02-21T00:22:01;52.77;;;24.03;;
19235;SDS011;9752;54.270;12.470;2024-02-21T00:27:04;60.50;;;28.53;;
19235;SDS011;9752;54.270;12.470;2024-02-21T00:32:06;50.87;;;27.87;;
19235;SDS011;9752;54.270;12.470;2024-02-21T00:37:08;62.43;;;28.70;;
19235;SDS011;9752;54.270;12.470;2024-02-21T00:42:11;57.17;;;29.87;;
19235;SDS011;9752;54.270;12.470;2024-02-21T00:47:12;54.57;;;26.43;;
19235;SDS011;9752;54.270;12.470;2024-02-21T00:52:14;47.80;;;26.67;;
19235;SDS011;9752;54.270;12.470;2024-02-21T00:57:17;52.93;;;28.30;;
19235;SDS011;9752;54.270;12.470;2024-02-21T01:02:19;64.30;;;31.37;;
19235;SDS011;9752;54.270;12.470;2024-02-21T01:07:20;55.73;;;29.20;;
19235;SDS011;9752;54.270;12.470;2024-02-21T01:12:24;63.97;;;31.77;;
19235;SDS011;9752;54.270;12.470;2024-02-21T01:17:26;62.63;;;30.87;;
19235;SDS011;9752;54.270;12.470;2024-02-21T01:22:28;58.77;;;31.00;;
19235;SDS011;9752;54.270;12.470;2024-02-21T01:27:31;67.33;;;34.73;;
19235;SDS011;9752;54.270;12.470;2024-02-21T01:32:32;88.00;;;36.63;;
19235;SDS011;9752;54.270;12.470;2024-02-21T01:37:34;70.37;;;35.57;;
19235;SDS011;9752;54.270;12.470;2024-02-21T01:42:39;69.57;;;33.53;;
19235;SDS011;9752;54.270;12.470;2024-02-21T01:47:41;69.97;;;35.50;;
19235;SDS011;9752;54.270;12.470;2024-02-21T01:52:43;67.87;;;34.93;;
19235;SDS011;9752;54.270;12.470;2024-02-21T01:57:49;62.23;;;33.93;;
19235;SDS011;9752;54.270;12.470;2024-02-21T02:02:51;68.43;;;33.80;;
19235;SDS011;9752;54.270;12.470;2024-02-21T02:07:52;63.30;;;33.33;;
19235;SDS011;9752;54.270;12.470;2024-02-21T02:12:55;57.57;;;31.10;;
19235;SDS011;9752;54.270;12.470;2024-02-21T02:17:57;61.17;;;32.60;;
19235;SDS011;9752;54.270;12.470;2024-02-21T02:22:59;61.07;;;32.63;;
19235;SDS011;9752;54.270;12.470;2024-02-21T02:28:02;62.37;;;33.13;;
19235;SDS011;9752;54.270;12.470;2024-02-21T02:33:04;67.77;;;32.63;;
19235;SDS011;9752;54.270;12.470;2024-02-21T02:38:06;61.83;;;33.30;;
19235;SDS011;9752;54.270;12.470;2024-02-21T02:43:10;58.40;;;33.60;;
19235;SDS011;9752;54.270;12.470;2024-02-21T02:48:12;66.83;;;35.30;;
19235;SDS011;9752;54.270;12.470;2024-02-21T02:53:13;75.70;;;37.23;;
19235;SDS011;9752;54.270;12.470;2024-02-21T02:58:16;69.30;;;34.73;;
19235;SDS011;9752;54.270;12.470;2024-02-21T03:03:18;73.87;;;35.87;;
19235;SDS011;9752;54.270;12.470;2024-02-21T03:08:19;66.73;;;34.80;;
19235;SDS011;9752;54.270;12.470;2024-02-21T03:13:24;70.27;;;33.50;;
19235;SDS011;9752;54.270;12.470;2024-02-21T03:18:26;65.73;;;36.67;;
19235;SDS011;9752;54.270;12.470;2024-02-21T03:23:27;71.77;;;37.33;;
19235;SDS011;9752;54.270;12.470;2024-02-21T03:28:30;75.93;;;37.20;;
19235;SDS011;9752;54.270;12.470;2024-02-21T03:33:32;63.87;;;33.30;;
19235;SDS011;9752;54.270;12.470;2024-02-21T03:38:33;67.20;;;36.43;;
19235;SDS011;9752;54.270;12.470;2024-02-21T03:43:38;61.37;;;35.90;;
19235;SDS011;9752;54.270;12.470;2024-02-21T03:48:40;64.30;;;33.53;;
19235;SDS011;9752;54.270;12.470;2024-02-21T03:53:41;58.43;;;32.83;;
19235;SDS011;9752;54.270;12.470;2024-02-21T03:58:44;54.17;;;29.43;;
19235;SDS011;9752;54.270;12.470;2024-02-21T04:03:46;55.47;;;29.77;;
19235;SDS011;9752;54.270;12.470;2024-02-21T04:08:48;50.70;;;29.47;;
19235;SDS011;9752;54.270;12.470;2024-02-21T04:13:51;61.63;;;30.33;;
19235;SDS011;9752;54.270;12.470;2024-02-21T04:18:52;46.43;;;27.50;;
19235;SDS011;9752;54.270;12.470;2024-02-21T04:23:54;50.90;;;25.10;;
19235;SDS011;9752;54.270;12.470;2024-02-21T04:28:57;62.83;;;29.17;;
19235;SDS011;9752;54.270;12.470;2024-02-21T04:33:59;54.80;;;28.03;;
19235;SDS011;9752;54.270;12.470;2024-02-21T04:39:00;42.73;;;25.00;;
19235;SDS011;9752;54.270;12.470;2024-02-21T04:44:03;47.93;;;27.47;;
19235;SDS011;9752;54.270;12.470;2024-02-21T04:49:05;46.13;;;27.60;;
19235;SDS011;9752;54.270;12.470;2024-02-21T04:54:07;46.67;;;28.63;;
19235;SDS011;9752;54.270;12.470;2024-02-21T04:59:10;45.73;;;26.50;;
19235;SDS011;9752;54.270;12.470;2024-02-21T05:04:11;45.23;;;24.67;;
19235;SDS011;9752;54.270;12.470;2024-02-21T05:09:13;52.70;;;28.77;;
19235;SDS011;9752;54.270;12.470;2024-02-21T05:14:16;52.53;;;28.70;;
19235;SDS011;9752;54.270;12.470;2024-02-21T05:19:18;50.73;;;28.63;;
19235;SDS011;9752;54.270;12.470;2024-02-21T05:24:19;52.93;;;29.73;;
19235;SDS011;9752;54.270;12.470;2024-02-21T05:29:22;57.07;;;29.27;;
19235;SDS011;9752;54.270;12.470;2024-02-21T05:34:25;53.90;;;29.87;;
19235;SDS011;9752;54.270;12.470;2024-02-21T05:39:26;51.90;;;27.73;;
19235;SDS011;9752;54.270;12.470;2024-02-21T05:44:30;49.00;;;29.50;;
19235;SDS011;9752;54.270;12.470;2024-02-21T05:49:32;47.63;;;31.43;;
19235;SDS011;9752;54.270;12.470;2024-02-21T05:54:34;37.63;;;29.43;;
19235;SDS011;9752;54.270;12.470;2024-02-21T05:59:39;27.67;;;22.23;;
19235;SDS011;9752;54.270;12.470;2024-02-21T06:04:42;32.77;;;21.63;;
19235;SDS011;9752;54.270;12.470;2024-02-21T06:09:44;28.10;;;20.60;;
19235;SDS011;9752;54.270;12.470;2024-02-21T06:14:47;21.67;;;17.60;;
19235;SDS011;9752;54.270;12.470;2024-02-21T06:19:49;19.57;;;17.77;;
19235;SDS011;9752;54.270;12.470;2024-02-21T06:24:50;24.30;;;17.60;;
19235;SDS011;9752;54.270;12.470;2024-02-21T06:29:55;22.33;;;16.70;;
19235;SDS011;9752;54.270;12.470;2024-02-21T06:34:57;18.33;;;15.13;;
19235;SDS011;9752;54.270;12.470;2024-02-21T06:39:58;17.57;;;12.90;;
19235;SDS011;9752;54.270;12.470;2024-02-21T06:45:02;13.23;;;10.80;;
19235;SDS011;9752;54.270;12.470;2024-02-21T06:50:04;15.67;;;9.80;;
19235;SDS011;9752;54.270;12.470;2024-02-21T06:55:06;14.60;;;9.57;;
19235;SDS011;9752;54.270;12.470;2024-02-21T07:00:12;11.60;;;8.50;;
19235;SDS011;9752;54.270;12.470;2024-02-21T07:05:15;11.27;;;9.20;;
19235;SDS011;9752;54.270;12.470;2024-02-21T07:10:17;16.37;;;9.30;;
19235;SDS011;9752;54.270;12.470;2024-02-21T07:15:20;22.27;;;8.43;;
19235;SDS011;9752;54.270;12.470;2024-02-21T07:20:21;11.70;;;7.00;;
19235;SDS011;9752;54.270;12.470;2024-02-21T07:25:23;12.43;;;6.30;;
19235;SDS011;9752;54.270;12.470;2024-02-21T07:30:26;16.33;;;6.67;;
19235;SDS011;9752;54.270;12.470;2024-02-21T07:35:28;12.13;;;6.33;;
19235;SDS011;9752;54.270;12.470;2024-02-21T07:40:29;11.37;;;7.10;;
19235;SDS011;9752;54.270;12.470;2024-02-21T07:45:32;8.03;;;6.30;;
19235;SDS011;9752;54.270;12.470;2024-02-21T07:50:34;13.07;;;7.17;;
19235;SDS011;9752;54.270;12.470;2024-02-21T07:55:36;10.67;;;6.43;;
19235;SDS011;9752;54.270;12.470;2024-02-21T08:00:38;9.97;;;5.57;;
19235;SDS011;9752;54.270;12.470;2024-02-21T08:05:40;11.10;;;5.20;;
19235;SDS011;9752;54.270;12.470;2024-02-21T08:10:42;9.83;;;5.37;;
19235;SDS011;9752;54.270;12.470;2024-02-21T08:15:45;8.73;;;5.07;;
19235;SDS011;9752;54.270;12.470;2024-02-21T08:20:47;8.00;;;4.27;;
19235;SDS011;9752;54.270;12.470;2024-02-21T08:25:48;9.37;;;5.50;;
19235;SDS011;9752;54.270;12.470;2024-02-21T08:30:51;8.13;;;5.17;;
19235;SDS011;9752;54.270;12.470;2024-02-21T08:35:53;6.90;;;5.17;;
19235;SDS011;9752;54.270;12.470;2024-02-21T08:40:54;8.90;;;5.13;;
19235;SDS011;9752;54.270;12.470;2024-02-21T08:45:57;8.57;;;4.53;;
19235;SDS011;9752;54.270;12.470;2024-02-21T08:50:59;18.13;;;6.50;;
19235;SDS011;9752;54.270;12.470;2024-02-21T08:56:01;14.33;;;5.60;;
19235;SDS011;9752;54.270;12.470;2024-02-21T09:01:04;8.80;;;4.77;;
19235;SDS011;9752;54.270;12.470;2024-02-21T09:06:07;5.63;;;4.57;;
19235;SDS011;9752;54.270;12.470;2024-02-21T09:11:09;18.57;;;6.00;;
19235;SDS011;9752;54.270;12.470;2024-02-21T09:16:12;12.47;;;5.40;;
19235;SDS011;9752;54.270;12.470;2024-02-21T09:21:14;12.63;;;5.33;;
19235;SDS011;9752;54.270;12.470;2024-02-21T09:26:15;10.13;;;6.00;;
19235;SDS011;9752;54.270;12.470;2024-02-21T09:31:18;9.83;;;5.73;;
19235;SDS011;9752;54.270;12.470;2024-02-21T09:36:20;11.83;;;5.67;;
19235;SDS011;9752;54.270;12.470;2024-02-21T09:41:23;8.70;;;4.83;;
19235;SDS011;9752;54.270;12.470;2024-02-21T09:46:30;17.60;;;6.13;;
19235;SDS011;9752;54.270;12.470;2024-02-21T09:51:44;12.23;;;5.77;;
19235;SDS011;9752;54.270;12.470;2024-02-21T09:56:47;10.20;;;5.90;;
19235;SDS011;9752;54.270;12.470;2024-02-21T10:01:51;16.67;;;5.87;;
19235;SDS011;9752;54.270;12.470;2024-02-21T10:06:53;13.40;;;6.00;;
19235;SDS011;9752;54.270;12.470;2024-02-21T10:11:55;23.23;;;6.90;;
19235;SDS011;9752;54.270;12.470;2024-02-21T10:17:14;16.53;;;6.37;;
19235;SDS011;9752;54.270;12.470;2024-02-21T10:22:19;14.60;;;7.10;;
19235;SDS011;9752;54.270;12.470;2024-02-21T10:27:23;14.57;;;6.73;;
19235;SDS011;9752;54.270;12.470;2024-02-21T10:32:26;18.47;;;6.27;;
19235;SDS011;9752;54.270;12.470;2024-02-21T10:37:28;16.90;;;6.00;;
19235;SDS011;9752;54.270;12.470;2024-02-21T10:42:30;14.07;;;6.43;;
19235;SDS011;9752;54.270;12.470;2024-02-21T10:47:36;19.43;;;6.30;;
19235;SDS011;9752;54.270;12.470;2024-02-21T10:52:43;21.97;;;7.80;;
19235;SDS011;9752;54.270;12.470;2024-02-21T10:57:51;13.63;;;6.57;;
19235;SDS011;9752;54.270;12.470;2024-02-21T11:02:55;11.57;;;5.97;;
19235;SDS011;9752;54.270;12.470;2024-02-21T11:07:57;12.23;;;7.87;;
19235;SDS011;9752;54.270;12.470;2024-02-21T11:13:05;17.07;;;7.13;;
19235;SDS011;9752;54.270;12.470;2024-02-21T11:18:10;7.80;;;6.77;;
19235;SDS011;9752;54.270;12.470;2024-02-21T11:23:11;12.57;;;8.27;;
19235;SDS011;9752;54.270;12.470;2024-02-21T11:28:13;14.87;;;9.47;;
19235;SDS011;9752;54.270;12.470;2024-02-21T11:33:16;13.13;;;8.97;;
19235;SDS011;9752;54.270;12.470;2024-02-21T11:38:18;14.97;;;8.50;;
19235;SDS011;9752;54.270;12.470;2024-02-21T11:43:25;14.03;;;9.40;;
19235;SDS011;9752;54.270;12.470;2024-02-21T11:48:28;11.33;;;8.77;;
19235;SDS011;9752;54.270;12.470;2024-02-21T11:53:30;16.27;;;9.10;;
19235;SDS011;9752;54.270;12.470;2024-02-21T11:58:33;16.17;;;8.60;;
19235;SDS011;9752;54.270;12.470;2024-02-21T12:03:36;11.80;;;8.43;;
19235;SDS011;9752;54.270;12.470;2024-02-21T12:08:41;13.40;;;8.77;;
19235;SDS011;9752;54.270;12.470;2024-02-21T12:13:43;15.63;;;8.33;;
19235;SDS011;9752;54.270;12.470;2024-02-21T12:18:47;11.23;;;7.57;;
19235;SDS011;9752;54.270;12.470;2024-02-21T12:23:49;15.90;;;6.73;;
19235;SDS011;9752;54.270;12.470;2024-02-21T12:28:51;15.00;;;6.87;;
19235;SDS011;9752;54.270;12.470;2024-02-21T12:33:54;12.17;;;7.93;;
19235;SDS011;9752;54.270;12.470;2024-02-21T12:38:56;10.63;;;7.03;;
19235;SDS011;9752;54.270;12.470;2024-02-21T12:43:57;13.20;;;7.13;;
19235;SDS011;9752;54.270;12.470;2024-02-21T12:49:01;14.80;;;8.47;;
19235;SDS011;9752;54.270;12.470;2024-02-21T12:54:03;11.73;;;7.43;;
19235;SDS011;9752;54.270;12.470;2024-02-21T12:59:04;9.13;;;7.50;;
19235;SDS011;9752;54.270;12.470;2024-02-21T13:04:09;10.90;;;7.83;;
19235;SDS011;9752;54.270;12.470;2024-02-21T13:09:11;12.43;;;7.97;;
19235;SDS011;9752;54.270;12.470;2024-02-21T13:14:13;9.77;;;6.53;;
19235;SDS011;9752;54.270;12.470;2024-02-21T13:19:16;8.70;;;7.57;;
19235;SDS011;9752;54.270;12.470;2024-02-21T13:24:18;9.33;;;6.60;;
19235;SDS011;9752;54.270;12.470;2024-02-21T13:29:20;10.23;;;7.03;;
19235;SDS011;9752;54.270;12.470;2024-02-21T13:34:23;7.60;;;6.27;;
19235;SDS011;9752;54.270;12.470;2024-02-21T13:39:25;11.00;;;6.10;;
19235;SDS011;9752;54.270;12.470;2024-02-21T13:44:27;5.30;;;4.90;;
19235;SDS011;9752;54.270;12.470;2024-02-21T13:49:30;5.90;;;4.77;;
19235;SDS011;9752;54.270;12.470;2024-02-21T13:54:32;10.07;;;5.20;;
19235;SDS011;9752;54.270;12.470;2024-02-21T13:59:34;8.67;;;4.80;;
19235;SDS011;9752;54.270;12.470;2024-02-21T14:04:37;8.27;;;4.67;;
19235;SDS011;9752;54.270;12.470;2024-02-21T14:09:39;7.30;;;4.90;;
19235;SDS011;9752;54.270;12.470;2024-02-21T14:14:40;6.77;;;3.97;;
19235;SDS011;9752;54.270;12.470;2024-02-21T14:19:44;5.00;;;4.10;;
19235;SDS011;9752;54.270;12.470;2024-02-21T14:24:46;4.83;;;4.30;;
19235;SDS011;9752;54.270;12.470;2024-02-21T14:29:48;8.10;;;4.47;;
19235;SDS011;9752;54.270;12.470;2024-02-21T14:34:51;6.43;;;4.83;;
19235;SDS011;9752;54.270;12.470;2024-02-21T14:39:52;5.00;;;3.83;;
19235;SDS011;9752;54.270;12.470;2024-02-21T14:44:54;4.67;;;3.60;;
19235;SDS011;9752;54.270;12.470;2024-02-21T14:50:05;5.17;;;4.37;;
19235;SDS011;9752;54.270;12.470;2024-02-21T14:55:08;5.73;;;3.63;;
19235;SDS011;9752;54.270;12.470;2024-02-21T15:00:10;4.50;;;4.13;;
19235;SDS011;9752;54.270;12.470;2024-02-21T15:05:14;4.67;;;4.07;;
19235;SDS011;9752;54.270;12.470;2024-02-21T15:10:15;4.73;;;4.23;;
19235;SDS011;9752;54.270;12.470;2024-02-21T15:15:18;5.33;;;4.40;;
19235;SDS011;9752;54.270;12.470;2024-02-21T15:20:21;5.87;;;5.37;;
19235;SDS011;9752;54.270;12.470;2024-02-21T15:25:23;6.57;;;5.90;;
19235;SDS011;9752;54.270;12.470;2024-02-21T15:30:25;8.90;;;6.60;;
19235;SDS011;9752;54.270;12.470;2024-02-21T15:35:33;7.20;;;6.13;;
19235;SDS011;9752;54.270;12.470;2024-02-21T15:40:34;8.47;;;6.40;;
19235;SDS011;9752;54.270;12.470;2024-02-21T15:45:36;7.80;;;6.50;;
19235;SDS011;9752;54.270;12.470;2024-02-21T15:50:41;11.07;;;6.60;;
19235;SDS011;9752;54.270;12.470;2024-02-21T15:55:42;10.20;;;6.13;;
19235;SDS011;9752;54.270;12.470;2024-02-21T16:00:46;10.23;;;6.57;;
19235;SDS011;9752;54.270;12.470;2024-02-21T16:05:49;9.20;;;7.90;;
19235;SDS011;9752;54.270;12.470;2024-02-21T16:10:50;14.77;;;8.00;;
19235;SDS011;9752;54.270;12.470;2024-02-21T16:15:52;9.23;;;7.73;;
19235;SDS011;9752;54.270;12.470;2024-02-21T16:20:55;11.77;;;8.57;;
19235;SDS011;9752;54.270;12.470;2024-02-21T16:25:57;14.23;;;9.10;;
19235;SDS011;9752;54.270;12.470;2024-02-21T16:30:58;16.73;;;10.03;;
19235;SDS011;9752;54.270;12.470;2024-02-21T16:36:02;14.63;;;9.10;;
19235;SDS011;9752;54.270;12.470;2024-02-21T16:41:04;12.53;;;9.67;;
19235;SDS011;9752;54.270;12.470;2024-02-21T16:46:06;17.40;;;10.63;;
19235;SDS011;9752;54.270;12.470;2024-02-21T16:51:09;16.70;;;10.50;;
19235;SDS011;9752;54.270;12.470;2024-02-21T16:56:11;16.70;;;10.40;;
19235;SDS011;9752;54.270;12.470;2024-02-21T17:01:12;12.60;;;10.47;;
19235;SDS011;9752;54.270;12.470;2024-02-21T17:06:15;16.07;;;11.83;;
19235;SDS011;9752;54.270;12.470;2024-02-21T17:11:17;20.27;;;11.03;;
19235;SDS011;9752;54.270;12.470;2024-02-21T17:16:19;13.37;;;10.63;;
19235;SDS011;9752;54.270;12.470;2024-02-21T17:21:22;19.80;;;11.80;;
19235;SDS011;9752;54.270;12.470;2024-02-21T17:26:24;19.43;;;12.27;;
19235;SDS011;9752;54.270;12.470;2024-02-21T17:31:26;19.97;;;13.07;;
19235;SDS011;9752;54.270;12.470;2024-02-21T17:36:29;16.80;;;13.00;;
19235;SDS011;9752;54.270;12.470;2024-02-21T17:41:31;24.00;;;14.20;;
19235;SDS011;9752;54.270;12.470;2024-02-21T17:46:32;22.30;;;13.27;;
19235;SDS011;9752;54.270;12.470;2024-02-21T17:51:35;20.17;;;14.27;;
19235;SDS011;9752;54.270;12.470;2024-02-21T17:56:37;22.73;;;14.13;;
19235;SDS011;9752;54.270;12.470;2024-02-21T18:01:39;25.33;;;14.80;;
19235;SDS011;9752;54.270;12.470;2024-02-21T18:06:42;25.93;;;15.40;;
19235;SDS011;9752;54.270;12.470;2024-02-21T18:11:44;21.10;;;14.73;;
19235;SDS011;9752;54.270;12.470;2024-02-21T18:16:46;22.37;;;14.70;;
19235;SDS011;9752;54.270;12.470;2024-02-21T18:21:49;19.37;;;13.53;;
19235;SDS011;9752;54.270;12.470;2024-02-21T18:26:51;19.50;;;12.60;;
19235;SDS011;9752;54.270;12.470;2024-02-21T18:31:53;17.57;;;13.03;;
19235;SDS011;9752;54.270;12.470;2024-02-21T18:36:56;18.87;;;14.30;;
19235;SDS011;9752;54.270;12.470;2024-02-21T18:41:58;19.50;;;14.83;;
19235;SDS011;9752;54.270;12.470;2024-02-21T18:46:59;23.67;;;14.23;;
19235;SDS011;9752;54.270;12.470;2024-02-21T18:52:03;22.40;;;14.33;;
19235;SDS011;9752;54.270;12.470;2024-02-21T18:57:05;21.13;;;13.47;;
19235;SDS011;9752;54.270;12.470;2024-02-21T19:02:06;17.30;;;12.30;;
19235;SDS011;9752;54.270;12.470;2024-02-21T19:07:09;22.57;;;12.77;;
19235;SDS011;9752;54.270;12.470;2024-02-21T19:12:11;17.80;;;13.10;;
19235;SDS011;9752;54.270;12.470;2024-02-21T19:17:13;18.90;;;13.03;;
19235;SDS011;9752;54.270;12.470;2024-02-21T19:22:16;23.57;;;12.30;;
19235;SDS011;9752;54.270;12.470;2024-02-21T19:27:17;15.37;;;11.93;;
19235;SDS011;9752;54.270;12.470;2024-02-21T19:32:19;18.60;;;11.93;;
19235;SDS011;9752;54.270;12.470;2024-02-21T19:37:23;17.03;;;11.47;;
19235;SDS011;9752;54.270;12.470;2024-02-21T19:42:24;15.23;;;11.00;;
19235;SDS011;9752;54.270;12.470;2024-02-21T19:47:26;15.37;;;11.67;;
19235;SDS011;9752;54.270;12.470;2024-02-21T19:52:29;15.57;;;11.30;;
19235;SDS011;9752;54.270;12.470;2024-02-21T19:57:31;13.90;;;11.33;;
19235;SDS011;9752;54.270;12.470;2024-02-21T20:02:33;15.90;;;10.00;;
19235;SDS011;9752;54.270;12.470;2024-02-21T20:07:36;15.27;;;10.87;;
19235;SDS011;9752;54.270;12.470;2024-02-21T20:12:37;17.67;;;11.43;;
19235;SDS011;9752;54.270;12.470;2024-02-21T20:17:40;16.57;;;10.47;;
19235;SDS011;9752;54.270;12.470;2024-02-21T20:22:47;14.60;;;11.07;;
19235;SDS011;9752;54.270;12.470;2024-02-21T20:27:49;17.97;;;11.30;;
19235;SDS011;9752;54.270;12.470;2024-02-21T20:32:51;24.30;;;11.57;;
19235;SDS011;9752;54.270;12.470;2024-02-21T20:37:56;19.60;;;10.20;;
19235;SDS011;9752;54.270;12.470;2024-02-21T20:42:58;14.80;;;11.47;;
19235;SDS011;9752;54.270;12.470;2024-02-21T20:48:00;18.40;;;10.60;;
19235;SDS011;9752;54.270;12.470;2024-02-21T20:53:03;18.23;;;12.07;;
19235;SDS011;9752;54.270;12.470;2024-02-21T20:58:05;17.10;;;9.83;;
19235;SDS011;9752;54.270;12.470;2024-02-21T21:03:07;18.47;;;11.20;;
19235;SDS011;9752;54.270;12.470;2024-02-21T21:08:11;12.70;;;9.23;;
19235;SDS011;9752;54.270;12.470;2024-02-21T21:13:14;15.87;;;10.90;;
19235;SDS011;9752;54.270;12.470;2024-02-21T21:18:16;18.73;;;10.43;;
19235;SDS011;9752;54.270;12.470;2024-02-21T21:23:19;16.80;;;9.90;;
19235;SDS011;9752;54.270;12.470;2024-02-21T21:28:21;15.70;;;10.27;;
19235;SDS011;9752;54.270;12.470;2024-02-21T21:33:22;15.37;;;10.27;;
19235;SDS011;9752;54.270;12.470;2024-02-21T21:38:25;17.67;;;9.73;;
19235;SDS011;9752;54.270;12.470;2024-02-21T21:43:27;16.97;;;10.10;;
19235;SDS011;9752;54.270;12.470;2024-02-21T21:48:29;18.10;;;11.20;;
19235;SDS011;9752;54.270;12.470;2024-02-21T21:53:32;16.57;;;10.37;;
19235;SDS011;9752;54.270;12.470;2024-02-21T21:58:33;17.27;;;9.93;;
19235;SDS011;9752;54.270;12.470;2024-02-21T22:03:36;12.40;;;9.40;;
19235;SDS011;9752;54.270;12.470;2024-02-21T22:08:39;19.07;;;10.63;;
19235;SDS011;9752;54.270;12.470;2024-02-21T22:13:41;18.37;;;10.63;;
19235;SDS011;9752;54.270;12.470;2024-02-21T22:18:44;14.37;;;10.07;;
19235;SDS011;9752;54.270;12.470;2024-02-21T22:23:47;11.83;;;9.37;;
19235;SDS011;9752;54.270;12.470;2024-02-21T22:28:49;14.00;;;9.20;;
19235;SDS011;9752;54.270;12.470;2024-02-21T22:33:50;19.47;;;10.30;;
19235;SDS011;9752;54.270;12.470;2024-02-21T22:38:54;12.50;;;9.90;;
19235;SDS011;9752;54.270;12.470;2024-02-21T22:43:56;13.37;;;9.50;;
19235;SDS011;9752;54.270;12.470;2024-02-21T22:48:58;11.33;;;8.47;;
19235;SDS011;9752;54.270;12.470;2024-02-21T22:54:01;12.40;;;8.97;;
19235;SDS011;9752;54.270;12.470;2024-02-21T22:59:04;13.07;;;8.50;;
19235;SDS011;9752;54.270;12.470;2024-02-21T23:04:06;12.13;;;9.00;;
19235;SDS011;9752;54.270;12.470;2024-02-21T23:09:11;15.80;;;9.13;;
19235;SDS011;9752;54.270;12.470;2024-02-21T23:14:15;11.73;;;7.97;;
19235;SDS011;9752;54.270;12.470;2024-02-21T23:19:17;14.17;;;9.37;;
19235;SDS011;9752;54.270;12.470;2024-02-21T23:24:20;11.30;;;8.53;;
19235;SDS011;9752;54.270;12.470;2024-02-21T23:29:22;13.10;;;8.93;;
19235;SDS011;9752;54.270;12.470;2024-02-21T23:34:24;12.00;;;8.20;;
19235;SDS011;9752;54.270;12.470;2024-02-21T23:39:27;14.23;;;8.57;;
19235;SDS011;9752;54.270;12.470;2024-02-21T23:44:30;12.00;;;8.10;;
19235;SDS011;9752;54.270;12.470;2024-02-21T23:49:32;15.10;;;8.53;;
19235;SDS011;9752;54.270;12.470;2024-02-21T23:54:35;11.17;;;7.80;;
19235;SDS011;9752;54.270;12.470;2024-02-21T23:59:37;13.87;;;7.90;;
